Time;durP1;ratioP1;P1;durP2;ratioP2;P2;SDS_P1;SDS_P2;PMS_P1;PMS_P2;Temp;Humidity;BMP_temperature;BMP_pressure;BME280_temperature;BME280_humidity;BME280_pressure;Samples;Min_cycle;Max_cycle;Signal;HPM_P1;HPM_P2
2021/04/09 00:00:42;;;;;;;16.40;6.93;;;;;;;10.67;41.82;71750.16;5006810;28;20570;-87
2021/04/09 00:03:10;;;;;;;12.10;6.97;;;;;;;11.63;41.75;71863.16;5015728;28;20026;-88
2021/04/09 00:05:37;;;;;;;12.60;7.47;;;;;;;11.76;41.76;71872.56;4996934;28;20014;-87
2021/04/09 00:08:04;;;;;;;25.35;7.43;;;;;;;12.04;42.06;71910.28;4997559;28;20038;-87
2021/04/09 00:10:31;;;;;;;14.25;6.97;;;;;;;11.91;41.15;71890.44;4997010;28;20145;-88
2021/04/09 00:12:58;;;;;;;11.90;8.05;;;;;;;12.42;41.11;71951.66;4996468;28;20515;-88
2021/04/09 00:15:25;;;;;;;14.32;6.20;;;;;;;12.20;41.57;71925.44;5012176;28;20025;-88
2021/04/09 00:17:53;;;;;;;10.45;6.22;;;;;;;12.22;41.40;71927.81;4996212;28;20394;-89
2021/04/09 00:20:24;;;;;;;12.00;6.38;;;;;;;12.21;41.94;71929.38;4995770;28;20455;-86
2021/04/09 00:22:51;;;;;;;11.52;7.28;;;;;;;12.71;41.49;71987.84;4990707;28;20112;-88
2021/04/09 00:25:19;;;;;;;15.20;7.03;;;;;;;12.85;40.93;72003.34;5012864;28;20121;-88
2021/04/09 00:27:46;;;;;;;11.63;5.60;;;;;;;12.11;40.88;71918.63;4995096;28;20477;-89
2021/04/09 00:30:21;;;;;;;13.70;6.18;;;;;;;12.47;40.17;71953.69;4995019;28;20033;-89
2021/04/09 00:32:48;;;;;;;8.10;5.60;;;;;;;13.07;40.28;72022.91;4995297;28;20152;-87
2021/04/09 00:35:16;;;;;;;7.13;4.22;;;;;;;12.16;39.81;71924.00;4990674;28;20416;-88
2021/04/09 00:37:43;;;;;;;11.90;5.00;;;;;;;13.14;40.74;72031.84;4975468;28;20037;-89
2021/04/09 00:40:11;;;;;;;10.35;5.18;;;;;;;13.30;40.45;72049.16;4975090;28;20022;-89
2021/04/09 00:42:38;;;;;;;6.10;4.20;;;;;;;13.49;39.75;72074.59;4975202;28;20197;-88
2021/04/09 00:45:09;;;;;;;9.57;5.55;;;;;;;13.43;39.01;72070.19;4975544;28;20026;-87
2021/04/09 00:47:36;;;;;;;6.45;4.60;;;;;;;13.15;38.98;72037.97;4975840;28;20109;-88
2021/04/09 00:50:04;;;;;;;10.10;4.85;;;;;;;12.31;40.09;71939.13;4975782;28;20080;-88
2021/04/09 00:52:34;;;;;;;10.77;5.07;;;;;;;13.12;38.72;72034.38;4987631;28;20026;-88
2021/04/09 00:55:01;;;;;;;7.63;4.13;;;;;;;13.67;38.84;72098.28;4991517;28;20531;-88
2021/04/09 00:57:29;;;;;;;10.75;5.32;;;;;;;12.73;38.87;71990.22;4980823;28;20037;-88
2021/04/09 00:59:56;;;;;;;8.18;5.40;;;;;;;12.53;39.08;71963.63;4975695;28;20181;-88
2021/04/09 01:02:23;;;;;;;8.10;5.45;;;;;;;13.37;37.63;72058.09;4981099;28;20479;-91
2021/04/09 01:04:51;;;;;;;19.48;5.95;;;;;;;13.18;37.57;72038.19;5000073;28;20719;-93
2021/04/09 01:07:18;;;;;;;12.52;5.57;;;;;;;13.73;38.22;72104.84;5000602;28;20498;-89
2021/04/09 01:09:45;;;;;;;13.25;5.80;;;;;;;12.89;38.01;72004.78;4997928;28;20107;-90
2021/04/09 01:12:12;;;;;;;17.70;6.00;;;;;;;13.79;38.33;72112.00;4998558;28;20030;-92
2021/04/09 01:14:39;;;;;;;10.05;6.30;;;;;;;13.81;37.64;72113.81;4999603;28;20360;-86
2021/04/09 01:17:13;;;;;;;13.43;5.47;;;;;;;13.14;37.30;72037.34;4998332;28;20488;-87
2021/04/09 01:20:22;;;;;;;14.13;5.45;;;;;;;14.10;37.54;72145.06;4998866;28;20801;-88
2021/04/09 01:23:27;;;;;;;12.23;6.53;;;;;;;14.20;36.56;72153.06;4999408;28;20561;-88
2021/04/09 01:26:51;;;;;;;12.35;6.70;;;;;;;14.26;37.09;72160.22;4956644;28;20049;-90
2021/04/09 01:29:56;;;;;;;15.57;8.32;;;;;;;14.36;38.20;72171.56;5008590;28;20026;-90
2021/04/09 01:32:24;;;;;;;19.50;10.43;;;;;;;13.03;39.31;72023.63;4933930;28;20047;-87
2021/04/09 01:34:55;;;;;;;18.48;10.45;;;;;;;13.91;39.75;72122.38;4995207;28;20031;-90
2021/04/09 01:37:27;;;;;;;16.38;9.63;;;;;;;13.96;39.89;72128.34;5004204;28;20097;-90
2021/04/09 01:40:11;;;;;;;24.15;10.43;;;;;;;13.15;40.52;72032.44;5007470;28;20033;-88
2021/04/09 01:42:41;;;;;;;15.40;9.40;;;;;;;13.30;41.21;72051.91;5004086;28;20395;-88
2021/04/09 01:45:12;;;;;;;19.20;11.13;;;;;;;12.94;41.94;72011.31;5010362;28;20042;-89
2021/04/09 01:47:41;;;;;;;19.83;9.45;;;;;;;13.56;41.38;72085.16;4983386;28;20038;-88
2021/04/09 01:50:15;;;;;;;19.13;9.10;;;;;;;13.44;40.73;72070.78;4982353;28;20040;-89
2021/04/09 01:52:44;;;;;;;13.52;8.60;;;;;;;13.61;40.67;72090.53;4983652;28;20034;-88
2021/04/09 01:55:13;;;;;;;22.63;10.32;;;;;;;13.94;40.86;72125.97;5002619;28;20157;-88
2021/04/09 01:57:43;;;;;;;24.63;12.20;;;;;;;14.13;41.58;72147.47;4994879;28;20061;-88
2021/04/09 02:00:18;;;;;;;19.67;12.13;;;;;;;13.28;42.33;72047.97;4990186;28;20022;-88
2021/04/09 02:02:47;;;;;;;18.20;11.45;;;;;;;14.33;41.37;72174.09;4995875;28;20116;-89
2021/04/09 02:05:22;;;;;;;19.50;10.43;;;;;;;13.78;41.33;72104.69;4998090;28;20026;-88
2021/04/09 02:07:55;;;;;;;21.92;13.00;;;;;;;13.85;41.90;72117.97;4999460;28;20030;-90
2021/04/09 02:10:23;;;;;;;21.45;13.30;;;;;;;13.62;42.06;72088.94;4992052;28;20030;-87
2021/04/09 02:12:52;;;;;;;20.30;11.82;;;;;;;13.54;42.63;72083.34;5022578;28;20014;-85
2021/04/09 02:15:21;;;;;;;18.65;10.60;;;;;;;13.80;39.97;72107.66;4989406;28;20030;-82
2021/04/09 02:17:49;;;;;;;19.35;10.93;;;;;;;13.23;40.53;72047.50;4996523;28;20044;-89
2021/04/09 02:20:20;;;;;;;14.25;8.68;;;;;;;13.77;41.22;72106.25;5014729;28;20105;-89
2021/04/09 02:22:49;;;;;;;21.00;10.63;;;;;;;13.57;40.73;72086.34;4996257;28;20030;-89
2021/04/09 02:25:18;;;;;;;23.10;11.20;;;;;;;14.03;40.78;72136.69;4986700;28;20036;-84
2021/04/09 02:27:46;;;;;;;13.53;9.83;;;;;;;13.75;39.69;72106.63;4977599;28;20816;-89
2021/04/09 02:30:15;;;;;;;18.60;10.13;;;;;;;13.30;40.59;72054.69;4984541;28;20026;-83
2021/04/09 02:32:42;;;;;;;12.02;9.70;;;;;;;13.55;40.96;72081.16;4991046;28;20506;-84
2021/04/09 02:35:11;;;;;;;12.40;8.75;;;;;;;14.26;40.23;72162.97;4990647;28;20038;-83
2021/04/09 02:37:41;;;;;;;21.93;8.67;;;;;;;13.66;39.93;72090.94;5012970;28;20022;-83
2021/04/09 02:40:21;;;;;;;21.88;9.68;;;;;;;14.33;39.89;72171.34;4993439;28;20025;-85
2021/04/09 02:42:51;;;;;;;17.63;10.00;;;;;;;13.97;39.95;72129.56;4991848;28;20042;-85
2021/04/09 02:45:20;;;;;;;14.18;8.77;;;;;;;14.12;39.76;72149.63;5002346;28;20172;-84
2021/04/09 02:47:48;;;;;;;12.13;8.15;;;;;;;13.86;40.45;72119.16;4994609;28;20026;-85
2021/04/09 02:50:40;;;;;;;18.92;9.07;;;;;;;13.93;40.85;72127.53;4994347;28;20041;-85
2021/04/09 02:53:24;;;;;;;12.38;9.27;;;;;;;13.74;41.51;72102.69;4990995;28;20399;-84
2021/04/09 02:55:52;;;;;;;17.42;9.82;;;;;;;13.76;41.61;72102.28;4989974;28;20044;-84
2021/04/09 02:58:20;;;;;;;20.40;10.00;;;;;;;13.02;41.50;72019.69;5011182;28;20102;-83
2021/04/09 03:00:49;;;;;;;16.05;9.85;;;;;;;12.07;40.87;71910.53;5011476;28;20387;-84
2021/04/09 03:03:18;;;;;;;16.88;10.85;;;;;;;13.89;40.27;72122.75;4991520;28;20396;-83
2021/04/09 03:05:48;;;;;;;17.30;9.73;;;;;;;13.67;40.40;72097.69;4987341;28;20038;-85
2021/04/09 03:08:16;;;;;;;19.52;9.32;;;;;;;13.57;40.84;72086.34;4993422;28;20032;-84
2021/04/09 03:10:43;;;;;;;16.63;10.35;;;;;;;14.17;40.50;72152.84;4993190;28;20099;-83
2021/04/09 03:13:10;;;;;;;22.08;10.70;;;;;;;13.37;39.99;72060.84;4993886;28;20072;-84
2021/04/09 03:15:49;;;;;;;17.77;11.23;;;;;;;13.35;40.01;72057.88;5007868;28;20032;-84
2021/04/09 03:18:18;;;;;;;16.85;9.07;;;;;;;13.82;39.91;72109.47;4988353;28;20164;-85
2021/04/09 03:20:44;;;;;;;18.58;8.50;;;;;;;13.85;39.78;72113.03;4987558;28;20026;-84
2021/04/09 03:23:11;;;;;;;19.90;9.02;;;;;;;13.63;38.96;72092.91;4993052;28;20117;-85
2021/04/09 03:25:38;;;;;;;20.70;9.20;;;;;;;13.53;38.58;72082.16;4989911;28;20022;-85
2021/04/09 03:28:06;;;;;;;14.15;9.55;;;;;;;13.92;39.49;72123.56;4989695;28;20030;-84
2021/04/09 03:30:34;;;;;;;28.33;10.35;;;;;;;14.63;39.68;72205.41;5010559;28;20030;-84
2021/04/09 03:33:01;;;;;;;18.25;9.98;;;;;;;13.95;39.35;72127.75;4993568;28;20026;-83
2021/04/09 03:35:28;;;;;;;19.38;11.80;;;;;;;14.16;39.47;72153.81;4988588;28;20040;-79
2021/04/09 03:37:55;;;;;;;17.55;9.40;;;;;;;14.77;38.17;72219.41;5001345;28;20018;-82
2021/04/09 03:40:22;;;;;;;14.45;11.25;;;;;;;13.74;38.16;72106.03;5002739;28;20029;-82
2021/04/09 03:42:48;;;;;;;14.60;9.43;;;;;;;14.54;38.46;72197.41;5001334;28;20113;-86
2021/04/09 03:45:15;;;;;;;15.00;9.32;;;;;;;14.94;37.99;72241.28;4979628;28;20034;-82
2021/04/09 03:47:42;;;;;;;20.77;10.82;;;;;;;14.74;37.98;72220.75;4998963;28;20030;-87
2021/04/09 03:50:09;;;;;;;17.95;10.98;;;;;;;14.10;38.24;72141.72;4976702;28;20544;-84
2021/04/09 03:52:39;;;;;;;19.48;11.18;;;;;;;14.44;37.24;72186.66;4994499;28;20026;-84
2021/04/09 03:55:09;;;;;;;15.45;10.00;;;;;;;14.59;37.87;72203.38;5013086;28;20038;-80
2021/04/09 03:57:36;;;;;;;21.73;10.13;;;;;;;13.80;37.33;72113.19;5019882;28;20041;-91
2021/04/09 04:00:04;;;;;;;20.85;10.85;;;;;;;14.96;36.84;72246.44;5010983;28;20022;-93
2021/04/09 04:02:31;;;;;;;14.77;10.88;;;;;;;14.53;36.20;72196.81;4998425;28;20022;-90
2021/04/09 04:04:58;;;;;;;19.40;11.40;;;;;;;15.14;37.09;72267.34;4998027;28;20029;-88
2021/04/09 04:07:26;;;;;;;17.02;10.27;;;;;;;15.21;36.24;72272.34;5000811;28;20026;-94
2021/04/09 04:09:56;;;;;;;15.70;10.00;;;;;;;14.01;35.98;72134.31;4967396;28;20046;-89
2021/04/09 04:12:23;;;;;;;21.02;9.55;;;;;;;14.32;35.74;72167.38;4999632;28;20038;-87
2021/04/09 04:14:49;;;;;;;16.83;10.95;;;;;;;14.83;35.36;72228.13;4989645;28;20025;-88
2021/04/09 04:17:16;;;;;;;20.00;10.48;;;;;;;15.09;35.91;72260.78;4992581;28;20125;-87
2021/04/09 04:19:43;;;;;;;22.20;11.95;;;;;;;14.96;36.08;72240.31;4983777;28;20062;-90
2021/04/09 04:22:10;;;;;;;18.00;10.68;;;;;;;15.20;36.05;72273.91;4985875;28;20076;-91
2021/04/09 04:24:37;;;;;;;18.27;11.55;;;;;;;15.70;35.71;72331.91;4997402;28;20033;-90
2021/04/09 04:27:04;;;;;;;14.80;10.02;;;;;;;14.71;35.72;72214.34;4998949;28;20032;-87
2021/04/09 04:29:30;;;;;;;17.75;12.13;;;;;;;14.72;35.42;72218.31;4987546;28;20030;-87
2021/04/09 04:31:57;;;;;;;21.08;11.05;;;;;;;14.11;34.90;72148.44;4997776;28;20487;-88
2021/04/09 04:34:24;;;;;;;22.45;10.57;;;;;;;15.23;36.32;72277.53;4989775;28;20033;-88
2021/04/09 04:36:51;;;;;;;20.58;10.73;;;;;;;15.57;36.42;72314.19;4997899;28;20033;-89
2021/04/09 04:39:24;;;;;;;19.73;11.25;;;;;;;15.41;35.55;72292.91;4997361;28;20030;-88
2021/04/09 04:41:54;;;;;;;15.50;9.38;;;;;;;15.41;34.31;72295.06;4996874;28;20034;-89
2021/04/09 04:44:21;;;;;;;25.83;10.93;;;;;;;15.25;35.13;72279.31;4992511;28;20037;-91
2021/04/09 04:46:48;;;;;;;19.13;11.35;;;;;;;14.85;34.93;72228.34;4993637;28;20034;-89
2021/04/09 04:49:15;;;;;;;17.58;10.88;;;;;;;15.60;35.45;72314.41;4994290;28;20081;-89
2021/04/09 04:51:41;;;;;;;16.48;10.40;;;;;;;15.72;34.09;72330.94;4993348;28;20026;-90
2021/04/09 04:54:08;;;;;;;20.42;11.85;;;;;;;15.29;32.37;72284.09;5006209;28;20034;-89
2021/04/09 04:56:36;;;;;;;23.77;12.20;;;;;;;15.56;32.42;72309.63;4995948;28;20533;-90
2021/04/09 04:59:03;;;;;;;20.60;10.55;;;;;;;15.23;32.58;72271.97;4996342;28;20395;-90
2021/04/09 05:01:30;;;;;;;13.52;9.63;;;;;;;15.19;31.67;72270.56;4996026;28;20014;-89
2021/04/09 05:04:08;;;;;;;;;;;;;;;;;;;;;
2021/04/09 05:06:35;;;;;;;20.42;10.23;;;;;;;15.76;32.79;72337.91;5015047;28;20040;-90
2021/04/09 05:09:02;;;;;;;15.25;10.40;;;;;;;15.87;32.97;72345.53;4996672;28;20026;-89
2021/04/09 05:11:29;;;;;;;18.52;12.02;;;;;;;14.43;32.09;72184.88;5013928;28;20025;-90
2021/04/09 05:14:01;;;;;;;18.98;11.48;;;;;;;14.23;32.26;72162.16;4996742;28;20026;-88
2021/04/09 05:16:27;;;;;;;17.75;11.80;;;;;;;15.26;33.10;72277.72;4996665;28;20034;-90
2021/04/09 05:18:58;;;;;;;16.60;11.55;;;;;;;13.84;32.61;72117.38;4997727;28;20029;-89
2021/04/09 05:21:25;;;;;;;16.05;11.18;;;;;;;14.95;32.07;72241.88;4995205;28;20036;-90
2021/04/09 05:23:52;;;;;;;24.02;11.70;;;;;;;15.27;31.42;72276.16;4995242;28;20026;-90
2021/04/09 05:26:18;;;;;;;16.27;11.73;;;;;;;14.59;31.19;72203.38;4995743;28;20084;-90
2021/04/09 05:28:48;;;;;;;14.70;11.07;;;;;;;15.03;32.73;72249.25;4979161;28;20026;-90
2021/04/09 05:31:15;;;;;;;19.95;11.80;;;;;;;15.43;34.32;72300.84;4976568;28;20026;-90
2021/04/09 05:33:42;;;;;;;22.00;11.60;;;;;;;15.10;34.14;72257.03;4977269;28;20026;-90
2021/04/09 05:36:09;;;;;;;15.50;9.95;;;;;;;15.29;32.07;72284.69;4976633;28;20039;-90
2021/04/09 05:38:36;;;;;;;18.77;9.65;;;;;;;14.47;30.41;72184.13;4976864;28;20034;-90
2021/04/09 05:41:03;;;;;;;19.13;10.23;;;;;;;15.23;30.27;72274.16;4977092;28;20019;-90
2021/04/09 05:43:30;;;;;;;18.48;9.18;;;;;;;14.95;27.78;72244.63;4977290;28;20023;-89
2021/04/09 05:45:57;;;;;;;17.90;9.50;;;;;;;14.58;28.18;72200.03;4976395;28;20472;-90
2021/04/09 05:48:27;;;;;;;16.90;8.38;;;;;;;14.47;26.01;72190.25;4977814;28;20460;-90
2021/04/09 05:50:54;;;;;;;16.98;7.72;;;;;;;14.97;27.02;72247.03;4980483;28;20061;-89
2021/04/09 05:53:21;;;;;;;26.50;7.93;;;;;;;15.13;27.04;72262.78;4980154;28;20045;-90
2021/04/09 05:55:49;;;;;;;14.98;8.25;;;;;;;15.50;27.29;72308.59;4979219;28;20076;-91
2021/04/09 05:58:16;;;;;;;9.88;7.10;;;;;;;14.88;26.96;72236.88;4984019;28;20120;-90
2021/04/09 06:00:43;;;;;;;24.38;9.00;;;;;;;15.33;27.47;72286.09;4995954;28;20026;-90
2021/04/09 06:03:10;;;;;;;16.20;8.68;;;;;;;15.03;28.82;72254.19;4996371;28;20433;-90
2021/04/09 06:05:37;;;;;;;11.77;9.40;;;;;;;15.85;31.86;72343.09;4997013;28;20030;-91
2021/04/09 06:08:08;;;;;;;16.98;10.30;;;;;;;15.49;35.24;72304.03;5002000;28;20060;-89
2021/04/09 06:10:38;;;;;;;21.30;9.85;;;;;;;14.98;33.83;72246.06;5000917;28;20072;-90
2021/04/09 06:13:05;;;;;;;;;;;;;;;15.55;36.19;72309.03;5000547;28;20034;-88
2021/04/09 06:15:33;;;;;;;25.42;13.02;;;;;;;14.12;35.30;72146.25;4998264;28;19964;-89
2021/04/09 06:18:00;;;;;;;22.30;12.30;;;;;;;13.97;36.36;72132.31;5000806;28;20172;-90
2021/04/09 06:20:27;;;;;;;32.88;14.23;;;;;;;15.17;37.00;72270.94;4999536;28;20035;-88
2021/04/09 06:22:53;;;;;;;15.43;12.82;;;;;;;14.64;36.87;72209.94;5002331;28;20030;-90
2021/04/09 06:25:21;;;;;;;21.88;13.52;;;;;;;14.89;36.11;72232.53;5002259;28;20061;-89
2021/04/09 06:27:48;;;;;;;26.25;12.65;;;;;;;15.39;36.49;72293.28;5000893;28;20026;-90
2021/04/09 06:30:15;;;;;;;22.42;12.98;;;;;;;15.51;34.41;72309.19;5000983;28;20069;-89
2021/04/09 06:32:42;;;;;;;23.13;11.10;;;;;;;15.17;33.69;72265.41;4997749;28;20027;-90
2021/04/09 06:35:09;;;;;;;15.38;10.10;;;;;;;15.08;32.70;72254.63;4980895;28;20410;-91
2021/04/09 06:37:36;;;;;;;14.88;11.05;;;;;;;15.36;33.28;72286.31;4998183;28;20029;-90
2021/04/09 06:40:05;;;;;;;15.00;11.20;;;;;;;14.97;33.92;72247.63;4999301;28;20018;-89
2021/04/09 06:42:32;;;;;;;14.20;11.05;;;;;;;15.16;32.38;72266.97;5000681;28;20133;-89
2021/04/09 06:44:59;;;;;;;11.77;9.57;;;;;;;15.17;32.01;72270.94;5001216;28;20026;-89
2021/04/09 06:47:26;;;;;;;15.63;9.73;;;;;;;15.76;31.26;72335.13;4984133;28;20033;-90
2021/04/09 06:49:54;;;;;;;17.75;9.57;;;;;;;15.16;29.72;72266.97;4998233;28;20034;-89
2021/04/09 06:52:25;;;;;;;18.67;10.32;;;;;;;15.03;30.57;72249.25;4998261;28;20041;-90
2021/04/09 06:54:52;;;;;;;12.10;9.90;;;;;;;15.68;28.99;72329.53;4994417;28;20086;-90
2021/04/09 06:57:20;;;;;;;17.83;9.63;;;;;;;15.45;29.51;72294.31;5012262;28;20031;-88
2021/04/09 06:59:47;;;;;;;17.95;10.20;;;;;;;15.05;31.50;72254.41;4992535;28;20044;-90
2021/04/09 07:02:18;;;;;;;17.52;10.32;;;;;;;14.29;31.92;72166.56;4978356;28;20057;-91
2021/04/09 07:04:48;;;;;;;18.55;10.60;;;;;;;15.56;30.85;72315.78;4981877;28;20022;-89
2021/04/09 07:07:18;;;;;;;;;;;;;;;15.68;31.77;72328.94;4981683;28;20026;-90
2021/04/09 07:09:46;;;;;;;26.27;10.70;;;;;;;15.77;32.10;72330.78;4983369;28;19917;-87
2021/04/09 07:12:27;;;;;;;16.58;10.50;;;;;;;16.05;30.80;72371.41;4979891;28;20038;-88
2021/04/09 07:15:03;;;;;;;20.13;9.80;;;;;;;15.45;31.83;72299.88;4997405;28;20480;-89
2021/04/09 07:17:36;;;;;;;17.50;9.20;;;;;;;15.22;30.57;72270.78;4977908;28;20082;-90
2021/04/09 07:20:15;;;;;;;20.13;11.38;;;;;;;15.22;31.56;72272.94;4979404;28;20117;-90
2021/04/09 07:22:45;;;;;;;17.53;10.93;;;;;;;15.77;32.49;72339.09;4978176;28;20072;-90
2021/04/09 07:25:17;;;;;;;22.70;13.05;;;;;;;15.35;33.21;72288.50;5011673;28;20296;-89
2021/04/09 07:27:46;;;;;;;17.92;12.68;;;;;;;15.57;34.68;72316.38;4997616;28;20030;-89
2021/04/09 07:30:27;;;;;;;20.80;13.43;;;;;;;15.41;34.78;72295.69;4997350;28;20034;-91
2021/04/09 07:33:06;;;;;;;16.50;13.48;;;;;;;15.55;33.58;72313.97;4998592;28;20033;-90
2021/04/09 07:35:54;;;;;;;17.95;13.18;;;;;;;14.88;33.96;72231.94;4998082;28;20030;-89
2021/04/09 07:38:24;;;;;;;18.98;12.07;;;;;;;15.11;34.32;72261.00;4997665;28;20484;-89
2021/04/09 07:40:59;;;;;;;15.77;12.68;;;;;;;15.03;34.45;72249.25;4980589;28;20031;-90
2021/04/09 07:43:29;;;;;;;24.23;12.07;;;;;;;14.56;34.69;72200.41;4994185;28;20033;-88
2021/04/09 07:45:59;;;;;;;16.73;11.98;;;;;;;14.73;35.28;72219.53;4977709;28;20445;-91
2021/04/09 07:48:33;;;;;;;16.55;10.95;;;;;;;13.48;34.63;72076.19;4993930;28;20038;-90
2021/04/09 07:51:01;;;;;;;20.10;11.20;;;;;;;14.47;34.41;72186.88;4995520;28;20101;-89
2021/04/09 07:53:32;;;;;;;19.95;11.93;;;;;;;14.69;35.33;72212.59;4993844;28;20034;-90
2021/04/09 07:56:11;;;;;;;;;;;;;;;14.75;34.90;72219.16;4993866;28;20084;-89
2021/04/09 07:58:40;;;;;;;14.80;12.03;;;;;;;14.70;33.79;72213.16;4977552;28;19920;-87
2021/04/09 08:01:25;;;;;;;20.75;10.80;;;;;;;14.99;33.59;72249.44;4995186;28;20113;-90
2021/04/09 08:03:53;;;;;;;18.00;10.05;;;;;;;14.78;33.51;72225.50;4978268;28;20028;-89
2021/04/09 08:06:24;;;;;;;17.65;9.18;;;;;;;14.66;33.80;72211.16;4980517;28;20392;-90
2021/04/09 08:08:51;;;;;;;20.23;10.07;;;;;;;14.95;33.12;72244.63;4977850;28;20113;-90
2021/04/09 08:11:28;;;;;;;18.17;9.10;;;;;;;14.91;32.10;72238.28;4994965;28;20034;-88
2021/04/09 08:14:02;;;;;;;13.30;8.90;;;;;;;14.89;32.26;72235.91;4995026;28;20582;-91
2021/04/09 08:16:31;;;;;;;18.55;9.45;;;;;;;14.91;31.05;72235.53;4997344;28;20030;-91
2021/04/09 08:19:03;;;;;;;11.55;7.85;;;;;;;14.36;30.78;72174.94;4997111;28;20034;-91
2021/04/09 08:21:31;;;;;;;11.18;8.63;;;;;;;14.81;31.04;72229.13;5014972;28;20120;-90
2021/04/09 08:23:59;;;;;;;15.15;8.43;;;;;;;13.51;29.65;72076.41;4997553;28;20077;-90
2021/04/09 08:26:28;;;;;;;14.60;8.95;;;;;;;14.74;29.69;72221.34;5013380;28;20030;-90
2021/04/09 08:28:56;;;;;;;14.70;8.35;;;;;;;13.78;30.28;72110.19;4996422;28;20412;-90
2021/04/09 08:31:23;;;;;;;13.85;7.57;;;;;;;13.65;29.53;72089.75;4996306;28;20034;-90
2021/04/09 08:33:51;;;;;;;13.02;7.47;;;;;;;14.74;29.98;72217.97;5013840;28;20180;-90
2021/04/09 08:36:18;;;;;;;13.23;8.48;;;;;;;14.72;29.40;72218.31;4996159;28;20109;-89
2021/04/09 08:38:45;;;;;;;17.00;8.02;;;;;;;14.76;30.15;72220.94;4996520;28;20030;-90
2021/04/09 08:41:13;;;;;;;12.75;7.88;;;;;;;14.86;30.12;72235.06;4996941;28;20037;-90
2021/04/09 08:43:41;;;;;;;16.75;7.25;;;;;;;14.55;29.84;72193.66;5014033;28;20108;-89
2021/04/09 08:46:08;;;;;;;17.50;9.27;;;;;;;14.83;30.85;72225.97;4997116;28;20026;-89
2021/04/09 08:48:38;;;;;;;17.13;8.65;;;;;;;14.15;30.05;72150.44;4997295;28;20456;-89
2021/04/09 08:51:07;;;;;;;16.88;7.47;;;;;;;14.94;29.41;72240.69;4997287;28;20034;-89
2021/04/09 08:53:34;;;;;;;12.20;7.90;;;;;;;14.91;29.10;72238.28;5000565;28;20027;-91
2021/04/09 08:56:02;;;;;;;16.85;9.30;;;;;;;14.74;30.16;72218.56;4995101;28;20073;-89
2021/04/09 08:58:32;;;;;;;13.25;8.18;;;;;;;14.68;29.83;72210.78;4994623;28;20066;-89
2021/04/09 09:01:11;;;;;;;11.50;7.82;;;;;;;14.70;29.82;72215.94;4994095;28;20108;-90
2021/04/09 09:03:38;;;;;;;17.17;10.50;;;;;;;14.49;30.27;72192.03;4998608;28;20256;-90
2021/04/09 09:06:07;;;;;;;13.38;8.18;;;;;;;14.19;29.55;72152.47;4994698;28;20026;-91
2021/04/09 09:08:46;;;;;;;13.88;8.52;;;;;;;14.59;29.95;72198.47;4993514;28;20034;-90
2021/04/09 09:11:34;;;;;;;19.38;10.48;;;;;;;14.71;30.27;72214.34;4995977;28;20034;-90
2021/04/09 09:14:01;;;;;;;14.23;9.27;;;;;;;13.43;31.19;72070.19;5000825;28;20054;-89
2021/04/09 09:16:36;;;;;;;14.80;9.13;;;;;;;14.09;31.49;72146.63;5006422;28;20026;-89
2021/04/09 09:19:03;;;;;;;20.33;9.77;;;;;;;14.66;32.70;72211.16;5004832;28;20026;-89
2021/04/09 09:21:36;;;;;;;15.10;10.23;;;;;;;14.06;31.90;72143.06;5001218;28;20038;-89
2021/04/09 09:24:04;;;;;;;18.13;10.60;;;;;;;14.55;32.76;72198.63;5000751;28;20022;-89
2021/04/09 09:26:41;;;;;;;15.88;10.88;;;;;;;14.50;32.57;72190.47;4999688;28;21837;-90
2021/04/09 09:29:28;;;;;;;19.90;9.80;;;;;;;14.51;32.79;72194.44;4998885;28;20049;-89
2021/04/09 09:32:04;;;;;;;12.55;8.43;;;;;;;14.48;32.56;72191.44;4996489;28;20023;-77
2021/04/09 09:34:38;;;;;;;12.38;8.55;;;;;;;14.36;32.73;72174.34;4980649;28;20031;-79
2021/04/09 09:37:07;;;;;;;14.77;8.75;;;;;;;14.36;32.92;72177.72;4978911;28;20049;-92
2021/04/09 09:40:06;;;;;;;12.48;8.48;;;;;;;14.39;32.45;72180.09;4982494;28;20042;-93
2021/04/09 09:42:33;;;;;;;14.90;7.63;;;;;;;14.34;32.25;72175.31;4987094;28;20042;-93
2021/04/09 09:45:09;;;;;;;11.82;8.63;;;;;;;12.96;32.88;72013.72;4990487;28;20034;-94
2021/04/09 09:47:49;;;;;;;15.60;7.88;;;;;;;14.36;32.80;72174.94;4986310;28;20054;-94
2021/04/09 09:50:27;;;;;;;12.48;7.65;;;;;;;14.28;32.87;72165.38;4988132;28;20078;-93
2021/04/09 09:53:07;;;;;;;11.80;6.55;;;;;;;14.31;32.21;72171.13;4980774;28;20488;-92
2021/04/09 09:55:52;;;;;;;14.73;6.85;;;;;;;13.87;32.21;72120.38;4989637;28;20034;-92
2021/04/09 09:58:26;;;;;;;20.98;7.32;;;;;;;14.16;32.71;72153.81;5034846;28;20088;-89
2021/04/09 10:01:08;;;;;;;10.55;6.75;;;;;;;12.41;32.39;71949.88;5035414;28;20094;-93
2021/04/09 10:03:40;;;;;;;19.60;7.72;;;;;;;12.77;32.36;71991.63;5005929;28;20065;-94
2021/04/09 10:06:29;;;;;;;9.68;7.25;;;;;;;12.66;32.34;71975.75;5033405;28;20038;-96
2021/04/09 10:08:56;;;;;;;10.68;5.15;;;;;;;11.91;31.99;71892.59;5026936;28;20037;-92
2021/04/09 10:11:23;;;;;;;19.05;8.70;;;;;;;13.45;32.05;72069.22;5017915;28;20033;-93
2021/04/09 10:13:53;;;;;;;18.80;7.70;;;;;;;13.94;32.18;72128.72;4991043;28;20022;-93
2021/04/09 10:16:21;;;;;;;9.65;4.38;;;;;;;14.01;32.03;72137.09;5025565;28;20036;-95
2021/04/09 10:18:57;;;;;;;13.18;6.80;;;;;;;14.00;32.33;72133.13;5002960;28;20045;-93
2021/04/09 10:24:25;;;;;;;17.40;7.70;;;;;;;12.30;32.14;71940.13;5349800;23;20042;-94
2021/04/09 10:26:56;;;;;;;7.65;4.97;;;;;;;13.92;31.11;72126.94;5031942;28;20041;-94
2021/04/09 10:29:37;;;;;;;12.18;6.13;;;;;;;13.08;31.32;72029.59;5020477;28;20029;-90
2021/04/09 10:32:06;;;;;;;13.68;6.13;;;;;;;13.79;31.49;72109.25;5028229;28;20038;-93
2021/04/09 10:34:37;;;;;;;9.90;6.45;;;;;;;13.54;31.04;72083.34;5024762;28;20085;-92
2021/04/09 10:37:06;;;;;;;16.23;8.65;;;;;;;13.18;30.96;72041.53;5023098;28;20016;-93
2021/04/09 10:39:33;;;;;;;15.95;6.93;;;;;;;13.11;30.36;72033.19;5027072;28;20041;-94
2021/04/09 10:42:03;;;;;;;12.70;8.15;;;;;;;11.44;30.92;71841.09;5026598;28;20071;-92
2021/04/09 10:44:32;;;;;;;9.82;6.72;;;;;;;13.77;30.45;72106.84;5015545;28;20041;-90
2021/04/09 10:47:01;;;;;;;16.33;8.60;;;;;;;13.68;29.83;72099.47;5011944;28;20022;-91
2021/04/09 10:49:30;;;;;;;15.77;7.55;;;;;;;13.53;30.33;72081.56;5011861;28;20099;-90
2021/04/09 10:52:14;;;;;;;14.70;7.28;;;;;;;13.69;30.43;72100.06;5008159;28;20033;-89
2021/04/09 10:54:44;;;;;;;11.30;6.63;;;;;;;12.51;29.91;71961.22;5007430;28;20022;-92
2021/04/09 10:57:13;;;;;;;14.25;6.88;;;;;;;13.44;30.28;72070.78;4997779;28;20450;-89
2021/04/09 10:59:41;;;;;;;14.35;6.97;;;;;;;13.52;29.99;72080.97;5007470;28;20065;-89
2021/04/09 11:02:11;;;;;;;14.32;7.10;;;;;;;13.79;30.46;72112.00;5009102;28;20031;-91
2021/04/09 11:04:38;;;;;;;11.70;6.90;;;;;;;13.72;30.40;72097.53;5015683;28;20026;-89
2021/04/09 11:07:07;;;;;;;13.90;6.03;;;;;;;13.34;30.48;72059.44;5013167;28;20054;-90
2021/04/09 11:09:49;;;;;;;10.70;6.30;;;;;;;13.75;31.60;72107.25;5010887;28;20120;-89
2021/04/09 11:12:19;;;;;;;11.57;5.97;;;;;;;13.66;32.20;72097.06;5008363;28;20029;-91
2021/04/09 11:14:50;;;;;;;12.88;5.85;;;;;;;13.51;32.12;72079.78;5009204;28;20034;-90
2021/04/09 11:17:28;;;;;;;12.80;6.38;;;;;;;13.11;32.43;72028.28;5000402;28;20044;-89
2021/04/09 11:19:57;;;;;;;13.48;5.32;;;;;;;13.58;33.22;72086.91;5012563;28;20064;-93
2021/04/09 11:22:29;;;;;;;11.10;5.47;;;;;;;13.34;34.07;72054.53;5011354;28;20021;-91
2021/04/09 11:25:07;;;;;;;13.25;6.10;;;;;;;13.42;33.30;72069.00;5013210;28;20058;-90
2021/04/09 11:27:39;;;;;;;8.25;6.15;;;;;;;12.96;34.32;72016.47;5015613;28;20037;-90
2021/04/09 11:30:10;;;;;;;9.30;6.25;;;;;;;13.47;34.49;72074.38;5031763;28;20045;-91
2021/04/09 11:32:47;;;;;;;14.27;7.53;;;;;;;13.34;35.98;72056.69;5007691;28;20027;-91
2021/04/09 11:35:15;;;;;;;16.27;6.38;;;;;;;13.18;35.77;72041.53;5015718;28;20006;-92
2021/04/09 11:37:43;;;;;;;11.75;7.60;;;;;;;13.25;34.65;72049.91;5020833;28;20040;-93
2021/04/09 11:40:12;;;;;;;11.15;6.53;;;;;;;13.35;33.43;72055.13;5013121;28;20026;-92
2021/04/09 11:42:39;;;;;;;11.75;6.20;;;;;;;12.80;32.67;71997.97;5011075;28;20032;-93